createdAt,value
2018-10-01T00:00:19.627Z,5.90
2018-10-01T00:02:48.532Z,5.23
2018-10-01T00:05:17.243Z,4.97
2018-10-01T00:07:45.800Z,5.43
2018-10-01T00:10:14.522Z,5.67
2018-10-01T00:12:43.072Z,6.17
2018-10-01T00:15:12.222Z,5.72
2018-10-01T00:17:40.825Z,5.00
2018-10-01T00:20:14.665Z,5.53
2018-10-01T00:22:48.528Z,6.93
2018-10-01T00:25:22.494Z,5.53
2018-10-01T00:27:51.056Z,6.13
2018-10-01T00:30:19.558Z,5.70
2018-10-01T00:32:49.186Z,5.60
2018-10-01T00:35:17.789Z,5.78
2018-10-01T00:37:46.228Z,5.30
2018-10-01T00:40:14.862Z,5.80
2018-10-01T00:42:43.433Z,6.50
2018-10-01T00:45:12.562Z,6.50
2018-10-01T00:47:41.295Z,5.80
2018-10-01T00:50:09.866Z,5.80
2018-10-01T00:52:38.407Z,6.00
2018-10-01T00:55:06.906Z,5.03
2018-10-01T00:57:35.394Z,5.37
2018-10-01T01:00:04.029Z,5.53
2018-10-01T01:02:32.537Z,6.30
2018-10-01T01:05:00.987Z,5.23
2018-10-01T01:07:29.599Z,5.10
2018-10-01T01:09:58.059Z,5.07
2018-10-01T01:12:27.341Z,4.53
2018-10-01T01:14:55.837Z,4.73
2018-10-01T01:17:24.339Z,4.97
2018-10-01T01:19:52.944Z,5.20
2018-10-01T01:22:22.098Z,5.37
2018-10-01T01:24:50.769Z,4.90
2018-10-01T01:27:19.294Z,4.53
2018-10-01T01:29:48.081Z,4.70
2018-10-01T01:32:16.739Z,5.17
2018-10-01T01:34:45.974Z,4.87
2018-10-01T01:37:14.559Z,5.37
2018-10-01T01:39:43.598Z,5.07
2018-10-01T01:42:12.216Z,5.20
2018-10-01T01:44:41.404Z,4.53
2018-10-01T01:47:09.889Z,4.83
2018-10-01T01:49:38.508Z,5.40
2018-10-01T01:52:07.520Z,5.03
2018-10-01T01:54:36.117Z,5.43
2018-10-01T01:57:04.708Z,5.53
2018-10-01T01:59:33.286Z,6.03
2018-10-01T02:02:01.884Z,6.03
2018-10-01T02:04:30.340Z,6.23
2018-10-01T02:06:59.025Z,6.33
2018-10-01T02:09:27.498Z,6.37
2018-10-01T02:11:56.878Z,5.23
2018-10-01T02:14:25.322Z,5.70
2018-10-01T02:16:53.810Z,5.67
2018-10-01T02:19:22.296Z,5.97
2018-10-01T02:21:50.899Z,6.00
2018-10-01T02:24:19.513Z,6.30
2018-10-01T02:26:47.941Z,6.20
2018-10-01T02:29:16.383Z,6.07
2018-10-01T02:31:44.936Z,6.60
2018-10-01T02:34:13.924Z,6.57
2018-10-01T02:36:43.094Z,5.97
2018-10-01T02:39:13.149Z,6.30
2018-10-01T02:41:41.596Z,7.07
2018-10-01T02:44:10.399Z,5.83
2018-10-01T02:46:39.613Z,6.23
2018-10-01T02:49:08.268Z,5.50
2018-10-01T02:51:42.159Z,6.20
2018-10-01T02:54:16.103Z,5.50
2018-10-01T02:56:44.935Z,5.37
2018-10-01T02:59:14.196Z,6.00
2018-10-01T03:01:42.714Z,5.53
2018-10-01T03:04:11.213Z,5.23
2018-10-01T03:06:39.681Z,5.97
2018-10-01T03:09:13.669Z,5.80
2018-10-01T03:11:42.371Z,5.83
2018-10-01T03:14:11.976Z,6.37
2018-10-01T03:16:41.088Z,6.10
2018-10-01T03:19:09.773Z,6.43
2018-10-01T03:21:39.300Z,5.70
2018-10-01T03:24:08.324Z,6.07
2018-10-01T03:26:37.472Z,6.33
2018-10-01T03:29:06.036Z,6.40
2018-10-01T03:31:35.189Z,5.50
2018-10-01T03:34:03.795Z,6.60
2018-10-01T03:36:32.346Z,6.27
2018-10-01T03:39:00.974Z,5.20
2018-10-01T03:41:29.595Z,5.53
2018-10-01T03:43:58.459Z,5.67
2018-10-01T03:46:27.540Z,5.13
2018-10-01T03:48:56.206Z,4.83
2018-10-01T03:51:24.794Z,5.90
2018-10-01T03:53:53.392Z,5.43
2018-10-01T03:56:21.953Z,5.77
2018-10-01T03:58:50.798Z,5.73
2018-10-01T04:01:19.269Z,4.77
2018-10-01T04:03:47.867Z,5.00
2018-10-01T04:06:16.315Z,5.23
2018-10-01T04:08:45.021Z,5.60
2018-10-01T04:11:13.625Z,5.13
2018-10-01T04:13:42.258Z,5.03
2018-10-01T04:16:10.993Z,5.80
2018-10-01T04:18:39.452Z,4.87
2018-10-01T04:21:08.286Z,4.83
2018-10-01T04:23:37.069Z,5.63
2018-10-01T04:26:05.570Z,4.87
2018-10-01T04:28:34.165Z,4.73
2018-10-01T04:31:02.671Z,5.40
2018-10-01T04:33:31.097Z,5.53
2018-10-01T04:35:59.724Z,4.97
2018-10-01T04:38:28.230Z,4.23
2018-10-01T04:40:56.691Z,5.10
2018-10-01T04:43:25.135Z,4.57
2018-10-01T04:45:53.637Z,5.03
2018-10-01T04:48:22.276Z,5.57
2018-10-01T04:50:50.710Z,4.87
2018-10-01T04:53:19.486Z,4.37
2018-10-01T04:55:47.970Z,5.43
2018-10-01T04:58:17.680Z,6.50
2018-10-01T05:00:46.051Z,5.23
2018-10-01T05:03:14.546Z,5.53
2018-10-01T05:05:43.136Z,4.10
2018-10-01T05:08:11.701Z,4.63
2018-10-01T05:10:40.300Z,4.20
2018-10-01T05:13:09.035Z,5.17
2018-10-01T05:15:37.485Z,6.40
2018-10-01T05:18:06.119Z,4.87
2018-10-01T05:20:34.568Z,3.57
2018-10-01T05:23:03.225Z,5.43
2018-10-01T05:25:31.760Z,7.63
2018-10-01T05:28:00.365Z,5.93
2018-10-01T05:30:29.708Z,3.43
2018-10-01T05:32:58.157Z,3.73
2018-10-01T05:35:26.641Z,4.25
2018-10-01T05:37:55.343Z,4.17
2018-10-01T05:40:24.115Z,3.43
2018-10-01T05:42:52.656Z,3.57
2018-10-01T05:45:21.099Z,3.33
2018-10-01T05:47:49.868Z,3.63
2018-10-01T05:50:18.444Z,3.63
2018-10-01T05:52:46.963Z,3.07
2018-10-01T05:55:15.536Z,3.20
2018-10-01T05:57:44.500Z,3.37
2018-10-01T06:00:12.888Z,2.90
2018-10-01T06:02:41.440Z,3.00
2018-10-01T06:05:09.954Z,3.20
2018-10-01T06:07:38.565Z,4.13
2018-10-01T06:10:07.061Z,2.77
2018-10-01T06:12:35.525Z,3.07
2018-10-01T06:15:04.205Z,2.80
2018-10-01T06:17:32.701Z,2.90
2018-10-01T06:20:01.725Z,2.73
2018-10-01T06:22:30.524Z,3.27
2018-10-01T06:24:59.195Z,3.00
2018-10-01T06:27:27.863Z,2.50
2018-10-01T06:29:56.565Z,2.47
2018-10-01T06:32:25.178Z,2.70
2018-10-01T06:34:54.628Z,2.77
2018-10-01T06:37:23.281Z,2.67
2018-10-01T06:39:51.740Z,2.77
2018-10-01T06:42:20.220Z,2.60
2018-10-01T06:44:48.723Z,3.30
2018-10-01T06:47:17.733Z,3.03
2018-10-01T06:49:46.765Z,2.90
2018-10-01T06:52:15.358Z,2.70
2018-10-01T06:54:44.705Z,3.00
2018-10-01T06:57:13.199Z,2.63
2018-10-01T06:59:41.654Z,2.77
2018-10-01T07:02:10.196Z,2.67
2018-10-01T07:04:38.644Z,2.43
2018-10-01T07:07:07.264Z,2.23
2018-10-01T07:09:37.008Z,2.67
2018-10-01T07:12:05.609Z,2.60
2018-10-01T07:14:34.597Z,2.30
2018-10-01T07:17:03.460Z,2.40
2018-10-01T07:19:32.619Z,2.43
2018-10-01T07:22:01.308Z,2.50
2018-10-01T07:24:29.776Z,2.27
2018-10-01T07:26:58.610Z,2.30
2018-10-01T07:29:27.125Z,2.30
2018-10-01T07:31:55.901Z,2.03
2018-10-01T07:34:24.357Z,1.93
2018-10-01T07:36:53.066Z,2.10
2018-10-01T07:39:21.607Z,2.10
2018-10-01T07:41:53.178Z,2.10
2018-10-01T07:44:21.681Z,2.13
2018-10-01T07:46:50.736Z,1.67
2018-10-01T07:49:19.358Z,2.33
2018-10-01T07:51:48.324Z,2.17
2018-10-01T07:54:17.059Z,2.10
2018-10-01T07:56:45.905Z,2.37
2018-10-01T07:59:14.520Z,1.83
2018-10-01T08:01:43.473Z,1.90
2018-10-01T08:04:12.271Z,2.00
2018-10-01T08:06:40.744Z,2.00
2018-10-01T08:09:10.482Z,1.93
2018-10-01T08:11:39.029Z,2.13
2018-10-01T08:14:07.785Z,1.93
2018-10-01T08:16:36.469Z,2.23
2018-10-01T08:19:05.372Z,2.57
2018-10-01T08:21:34.070Z,1.67
2018-10-01T08:24:03.202Z,1.60
2018-10-01T08:26:32.193Z,1.70
2018-10-01T08:29:00.706Z,1.70
2018-10-01T08:31:29.278Z,1.93
2018-10-01T08:33:57.845Z,1.70
2018-10-01T08:36:26.329Z,2.10
2018-10-01T08:38:55.732Z,1.70
2018-10-01T08:41:24.464Z,1.60
2018-10-01T08:43:53.086Z,2.03
2018-10-01T08:46:21.927Z,1.62
2018-10-01T08:49:59.317Z,1.73
2018-10-01T08:52:30.094Z,1.57
2018-10-01T08:54:58.657Z,1.97
2018-10-01T08:57:27.320Z,1.90
2018-10-01T08:59:56.898Z,1.53
2018-10-01T09:02:25.529Z,1.50
2018-10-01T09:04:54.140Z,1.53
2018-10-01T09:07:22.593Z,1.90
2018-10-01T09:09:51.269Z,1.43
2018-10-01T09:12:20.515Z,1.47
2018-10-01T09:14:50.092Z,1.50
2018-10-01T09:17:18.680Z,1.70
2018-10-01T09:19:47.404Z,1.90
2018-10-01T09:22:16.065Z,1.53
2018-10-01T09:24:45.442Z,1.57
2018-10-01T09:27:13.992Z,1.60
2018-10-01T09:29:42.717Z,1.77
2018-10-01T09:32:12.118Z,2.07
2018-10-01T09:34:40.773Z,1.60
2018-10-01T09:37:09.391Z,3.90
2018-10-01T09:39:37.964Z,1.83
2018-10-01T09:42:06.502Z,1.73
2018-10-01T09:44:35.032Z,1.53
2018-10-01T09:47:03.944Z,1.73
2018-10-01T09:49:32.535Z,1.40
2018-10-01T09:52:01.120Z,1.43
2018-10-01T09:54:29.651Z,1.17
2018-10-01T09:56:58.403Z,1.10
2018-10-01T09:59:27.240Z,1.40
2018-10-01T10:01:55.735Z,1.87
2018-10-01T10:04:24.583Z,1.30
2018-10-01T10:06:53.038Z,1.43
2018-10-01T10:09:21.674Z,1.60
2018-10-01T10:11:50.467Z,1.40
2018-10-01T10:14:19.105Z,1.57
2018-10-01T10:16:47.655Z,1.40
2018-10-01T10:19:16.227Z,2.20
2018-10-01T10:21:44.776Z,1.37
2018-10-01T10:24:13.333Z,1.67
2018-10-01T10:26:41.932Z,1.50
2018-10-01T10:29:10.369Z,0.83
2018-10-01T10:31:39.157Z,1.20
2018-10-01T10:34:08.678Z,1.30
2018-10-01T10:36:37.173Z,1.90
2018-10-01T10:39:09.682Z,1.30
2018-10-01T10:41:38.273Z,3.70
2018-10-01T10:44:07.089Z,1.60
2018-10-01T10:46:35.801Z,1.23
2018-10-01T10:49:04.405Z,1.80
2018-10-01T10:51:33.145Z,1.63
2018-10-01T10:54:01.593Z,1.60
2018-10-01T10:56:30.192Z,1.40
2018-10-01T10:58:58.967Z,1.47
2018-10-01T11:01:27.506Z,1.60
2018-10-01T11:03:56.014Z,1.37
2018-10-01T11:06:24.661Z,1.23
2018-10-01T11:08:53.641Z,1.20
2018-10-01T11:11:22.349Z,1.00
2018-10-01T11:13:51.009Z,1.20
2018-10-01T11:16:19.501Z,1.10
2018-10-01T11:18:48.815Z,1.10
2018-10-01T11:21:17.333Z,1.80
2018-10-01T11:23:46.049Z,1.40
2018-10-01T11:26:14.671Z,2.00
2018-10-01T11:28:43.282Z,1.93
2018-10-01T11:31:11.708Z,1.83
2018-10-01T11:33:40.317Z,1.50
2018-10-01T11:36:08.770Z,1.60
2018-10-01T11:38:37.228Z,2.00
2018-10-01T11:41:05.770Z,1.83
2018-10-01T11:43:34.340Z,1.80
2018-10-01T11:46:02.861Z,1.80
2018-10-01T11:48:32.053Z,2.10
2018-10-01T11:51:00.647Z,2.50
2018-10-01T11:53:29.223Z,3.90
2018-10-01T11:55:58.123Z,2.40
2018-10-01T11:58:26.612Z,3.20
2018-10-01T12:00:55.296Z,3.20
2018-10-01T12:03:23.904Z,1.83
2018-10-01T12:05:52.425Z,2.27
2018-10-01T12:08:20.971Z,3.17
2018-10-01T12:10:49.630Z,2.10
2018-10-01T12:13:18.257Z,2.03
2018-10-01T12:15:46.875Z,1.67
2018-10-01T12:18:16.178Z,1.73
2018-10-01T12:20:44.910Z,1.47
2018-10-01T12:23:13.528Z,1.80
2018-10-01T12:25:41.985Z,2.10
2018-10-01T12:28:10.594Z,2.30
2018-10-01T12:30:39.266Z,2.30
2018-10-01T12:33:08.120Z,2.10
2018-10-01T12:35:37.360Z,1.60
2018-10-01T12:38:07.064Z,1.90
2018-10-01T12:40:35.892Z,1.97
2018-10-01T12:43:04.937Z,1.50
2018-10-01T12:45:33.888Z,2.03
2018-10-01T12:48:02.964Z,2.20
2018-10-01T12:50:31.540Z,1.53
2018-10-01T12:53:00.758Z,1.80
2018-10-01T12:55:29.803Z,2.23
2018-10-01T12:57:59.201Z,2.13
2018-10-01T13:00:27.810Z,2.30
2018-10-01T13:02:56.941Z,2.57
2018-10-01T13:05:25.999Z,2.40
2018-10-01T13:07:55.133Z,2.37
2018-10-01T13:10:23.749Z,2.40
2018-10-01T13:12:52.657Z,1.97
2018-10-01T13:15:21.360Z,2.10
2018-10-01T13:17:50.125Z,2.00
2018-10-01T13:20:18.591Z,2.13
2018-10-01T13:22:47.132Z,2.80
2018-10-01T13:25:15.982Z,2.07
2018-10-01T13:27:44.557Z,2.47
2018-10-01T13:30:13.453Z,2.50
2018-10-01T13:32:42.243Z,2.67
2018-10-01T13:35:10.886Z,2.87
2018-10-01T13:37:39.411Z,2.90
2018-10-01T13:40:09.024Z,2.90
2018-10-01T13:42:37.615Z,3.63
2018-10-01T13:45:08.104Z,2.47
2018-10-01T13:47:37.337Z,2.50
2018-10-01T13:50:06.390Z,2.40
2018-10-01T13:52:35.947Z,2.23
2018-10-01T13:55:04.589Z,2.20
2018-10-01T13:57:33.251Z,2.23
2018-10-01T14:00:01.788Z,1.80
2018-10-01T14:02:30.979Z,2.23
2018-10-01T14:04:59.976Z,1.87
2018-10-01T14:07:28.789Z,1.60
2018-10-01T14:09:57.709Z,2.47
2018-10-01T14:12:26.273Z,2.27
2018-10-01T14:14:54.844Z,3.30
2018-10-01T14:17:23.327Z,2.50
2018-10-01T14:19:51.951Z,2.37
2018-10-01T14:22:20.780Z,2.13
2018-10-01T14:24:49.290Z,2.60
2018-10-01T14:27:17.818Z,2.53
2018-10-01T14:29:46.497Z,1.83
2018-10-01T14:32:14.993Z,2.10
2018-10-01T14:34:44.241Z,2.27
2018-10-01T14:37:13.022Z,2.13
2018-10-01T14:39:41.647Z,1.70
2018-10-01T14:42:10.385Z,1.83
2018-10-01T14:44:38.892Z,1.63
2018-10-01T14:47:07.641Z,1.80
2018-10-01T14:49:36.229Z,2.50
2018-10-01T14:52:04.944Z,1.50
2018-10-01T14:54:33.433Z,1.47
2018-10-01T14:57:02.241Z,1.50
2018-10-01T14:59:30.741Z,1.40
2018-10-01T15:01:59.565Z,1.50
2018-10-01T15:04:28.203Z,1.70
2018-10-01T15:06:56.774Z,1.27
2018-10-01T15:09:25.341Z,1.37
2018-10-01T15:11:53.923Z,1.50
2018-10-01T15:14:22.407Z,1.37
2018-10-01T15:16:51.103Z,1.30
2018-10-01T15:19:19.553Z,1.27
2018-10-01T15:21:48.275Z,1.30
2018-10-01T15:24:16.852Z,1.70
2018-10-01T15:26:45.305Z,1.43
2018-10-01T15:29:13.823Z,1.40
2018-10-01T15:31:42.814Z,1.37
2018-10-01T15:34:11.596Z,1.33
2018-10-01T15:36:40.104Z,1.53
2018-10-01T15:39:09.791Z,1.30
2018-10-01T15:41:38.820Z,1.40
2018-10-01T15:44:07.625Z,1.53
2018-10-01T15:46:36.221Z,1.40
2018-10-01T15:49:05.792Z,1.50
2018-10-01T15:51:35.144Z,1.63
2018-10-01T15:54:03.921Z,2.77
2018-10-01T15:56:32.416Z,1.50
2018-10-01T15:59:02.060Z,1.87
2018-10-01T16:01:30.771Z,1.37
2018-10-01T16:03:59.263Z,1.43
2018-10-01T16:06:27.870Z,1.43
2018-10-01T16:08:56.312Z,1.70
2018-10-01T16:11:24.962Z,1.63
2018-10-01T16:13:53.557Z,2.00
2018-10-01T16:16:22.216Z,2.23
2018-10-01T16:18:50.865Z,16.30
2018-10-01T16:21:20.165Z,2.47
2018-10-01T16:23:48.707Z,1.80
2018-10-01T16:26:17.842Z,1.70
2018-10-01T16:28:46.663Z,1.60
2018-10-01T16:31:15.417Z,2.00
2018-10-01T16:33:44.076Z,1.20
2018-10-01T16:36:12.869Z,1.00
2018-10-01T16:38:41.994Z,1.00
2018-10-01T16:41:10.779Z,1.10
2018-10-01T16:43:40.242Z,1.27
2018-10-01T16:46:08.789Z,1.40
2018-10-01T16:48:37.657Z,1.40
2018-10-01T16:51:07.005Z,1.63
2018-10-01T16:53:36.225Z,1.67
2018-10-01T16:56:05.203Z,2.13
2018-10-01T16:58:33.853Z,1.87
2018-10-01T17:01:02.664Z,2.07
2018-10-01T17:03:31.637Z,2.20
2018-10-01T17:06:00.673Z,2.20
2018-10-01T17:08:30.376Z,2.17
2018-10-01T17:10:59.527Z,1.90
2018-10-01T17:13:28.188Z,2.10
2018-10-01T17:15:56.817Z,1.80
2018-10-01T17:18:26.440Z,1.80
2018-10-01T17:20:55.484Z,2.73
2018-10-01T17:23:24.152Z,2.60
2018-10-01T17:25:52.848Z,2.57
2018-10-01T17:28:21.539Z,2.57
2018-10-01T17:30:50.867Z,2.53
2018-10-01T17:33:19.567Z,2.90
2018-10-01T17:35:48.067Z,2.63
2018-10-01T17:38:16.769Z,3.47
2018-10-01T17:40:45.357Z,2.17
2018-10-01T17:43:13.929Z,2.77
2018-10-01T17:45:43.288Z,2.77
2018-10-01T17:48:11.980Z,2.60
2018-10-01T17:50:41.218Z,2.83
2018-10-01T17:53:09.825Z,2.97
2018-10-01T17:55:38.645Z,2.60
2018-10-01T17:58:07.412Z,2.73
2018-10-01T18:00:35.934Z,2.40
2018-10-01T18:03:04.806Z,2.60
2018-10-01T18:05:34.102Z,2.97
2018-10-01T18:08:02.857Z,2.47
2018-10-01T18:10:31.873Z,3.47
2018-10-01T18:13:00.657Z,4.20
2018-10-01T18:15:30.247Z,4.67
2018-10-01T18:17:59.579Z,3.80
2018-10-01T18:20:28.248Z,3.83
2018-10-01T18:22:56.902Z,3.47
2018-10-01T18:25:26.570Z,3.30
2018-10-01T18:27:55.298Z,3.73
2018-10-01T18:30:24.724Z,2.70
2018-10-01T18:32:53.157Z,2.37
2018-10-01T18:35:21.982Z,2.33
2018-10-01T18:37:51.357Z,3.10
2018-10-01T18:40:20.334Z,2.60
2018-10-01T18:42:48.862Z,2.30
2018-10-01T18:45:17.467Z,3.30
2018-10-01T18:47:46.088Z,2.23
2018-10-01T18:50:14.953Z,2.97
2018-10-01T18:52:43.773Z,3.27
2018-10-01T18:55:12.610Z,3.13
2018-10-01T18:57:41.410Z,2.70
2018-10-01T19:00:10.842Z,2.97
2018-10-01T19:02:39.753Z,2.77
2018-10-01T19:05:09.172Z,3.33
2018-10-01T19:07:39.438Z,3.63
2018-10-01T19:10:09.007Z,4.00
2018-10-01T19:12:38.448Z,3.50
2018-10-01T19:15:08.920Z,3.23
2018-10-01T19:17:37.380Z,2.80
2018-10-01T19:20:07.283Z,2.80
2018-10-01T19:22:36.833Z,3.40
2018-10-01T19:25:05.799Z,3.07
2018-10-01T19:27:34.323Z,3.23
2018-10-01T19:30:03.401Z,3.03
2018-10-01T19:32:31.966Z,3.80
2018-10-01T19:35:00.669Z,3.93
2018-10-01T19:37:30.254Z,2.70
2018-10-01T19:39:59.263Z,3.97
2018-10-01T19:42:28.110Z,2.73
2018-10-01T19:44:56.740Z,3.33
2018-10-01T19:47:25.488Z,3.17
2018-10-01T19:49:54.082Z,3.20
2018-10-01T19:52:23.288Z,3.00
2018-10-01T19:54:51.867Z,3.73
2018-10-01T19:57:20.672Z,4.30
2018-10-01T19:59:49.213Z,3.77
2018-10-01T20:02:17.937Z,3.53
2018-10-01T20:04:46.836Z,2.93
2018-10-01T20:07:15.720Z,3.57
2018-10-01T20:09:45.234Z,2.53
2018-10-01T20:12:15.094Z,3.43
2018-10-01T20:14:44.443Z,3.07
2018-10-01T20:17:13.911Z,3.43
2018-10-01T20:19:42.661Z,3.50
2018-10-01T20:22:13.346Z,3.80
2018-10-01T20:24:41.912Z,3.33
2018-10-01T20:27:10.613Z,3.47
2018-10-01T20:29:40.005Z,3.53
2018-10-01T20:32:08.557Z,3.90
2018-10-01T20:34:37.059Z,3.67
2018-10-01T20:37:05.676Z,4.00
2018-10-01T20:39:34.979Z,4.10
2018-10-01T20:42:10.184Z,3.50
2018-10-01T20:44:38.837Z,4.33
2018-10-01T20:47:07.444Z,4.03
2018-10-01T20:49:36.199Z,3.30
2018-10-01T20:52:05.362Z,3.30
2018-10-01T20:54:34.188Z,3.33
2018-10-01T20:57:02.875Z,3.20
2018-10-01T20:59:31.833Z,3.00
2018-10-01T21:02:01.265Z,3.50
2018-10-01T21:04:29.907Z,3.07
2018-10-01T21:06:58.537Z,3.07
2018-10-01T21:09:27.456Z,2.87
2018-10-01T21:11:56.149Z,2.97
2018-10-01T21:14:24.923Z,2.93
2018-10-01T21:16:53.565Z,3.80
2018-10-01T21:19:22.085Z,2.77
2018-10-01T21:21:51.613Z,2.90
2018-10-01T21:24:20.212Z,3.33
2018-10-01T21:26:48.868Z,2.93
2018-10-01T21:29:17.461Z,2.80
2018-10-01T21:31:46.171Z,2.97
2018-10-01T21:34:15.654Z,2.70
2018-10-01T21:36:44.957Z,3.03
2018-10-01T21:40:17.987Z,3.00
2018-10-01T21:42:47.553Z,2.67
2018-10-01T21:45:17.377Z,2.93
2018-10-01T21:47:52.960Z,2.83
2018-10-01T21:50:23.046Z,2.53
2018-10-01T21:52:51.661Z,2.93
2018-10-01T21:55:20.361Z,2.40
2018-10-01T21:57:49.032Z,2.50
2018-10-01T22:00:17.669Z,2.63
2018-10-01T22:02:46.522Z,3.00
2018-10-01T22:05:15.477Z,3.00
2018-10-01T22:07:44.139Z,2.47
2018-10-01T22:10:13.401Z,2.67
2018-10-01T22:12:42.446Z,3.13
2018-10-01T22:15:11.069Z,3.37
2018-10-01T22:17:39.739Z,2.43
2018-10-01T22:20:08.346Z,2.50
2018-10-01T22:22:36.932Z,2.60
2018-10-01T22:25:05.604Z,2.60
2018-10-01T22:27:35.224Z,2.30
2018-10-01T22:30:04.448Z,2.00
2018-10-01T22:32:32.977Z,3.10
2018-10-01T22:35:02.116Z,2.77
2018-10-01T22:37:31.037Z,2.93
2018-10-01T22:39:59.727Z,2.50
2018-10-01T22:42:28.161Z,2.37
2018-10-01T22:44:56.714Z,2.57
2018-10-01T22:47:25.931Z,2.97
2018-10-01T22:49:54.733Z,2.30
2018-10-01T22:52:23.259Z,3.00
2018-10-01T22:54:51.976Z,2.60
2018-10-01T22:57:20.535Z,2.87
2018-10-01T22:59:49.689Z,2.67
2018-10-01T23:02:18.668Z,2.87
2018-10-01T23:04:47.255Z,2.10
2018-10-01T23:07:15.763Z,2.07
2018-10-01T23:09:45.170Z,2.40
2018-10-01T23:12:14.247Z,2.30
2018-10-01T23:14:42.726Z,2.40
2018-10-01T23:17:12.334Z,2.30
2018-10-01T23:19:40.852Z,2.27
2018-10-01T23:22:10.065Z,2.30
2018-10-01T23:24:38.706Z,2.17
2018-10-01T23:27:07.352Z,2.70
2018-10-01T23:29:35.849Z,2.37
2018-10-01T23:32:04.509Z,2.40
2018-10-01T23:34:33.003Z,1.70
2018-10-01T23:39:33.918Z,2.50
2018-10-01T23:42:02.487Z,2.37
2018-10-01T23:44:31.333Z,2.60
2018-10-01T23:46:59.813Z,2.33
2018-10-01T23:49:28.794Z,1.70
2018-10-01T23:51:57.461Z,2.50
2018-10-01T23:54:26.010Z,2.60
2018-10-01T23:56:54.870Z,2.10
2018-10-01T23:59:23.398Z,1.80
